Time;durP1;ratioP1;P1;durP2;ratioP2;P2;SDS_P1;SDS_P2;PMS_P1;PMS_P2;Temp;Humidity;BMP_temperature;BMP_pressure;BME280_temperature;BME280_humidity;BME280_pressure;Samples;Min_cycle;Max_cycle;Signal;HPM_P1;HPM_P2
2021/07/19 00:00:27;;;;;;;13.10;7.05;;;;;;;;;;6323481;22;20023;-84
2021/07/19 00:02:54;;;;;;;19.95;7.72;;;;;;;;;;6351529;22;20034;-83
2021/07/19 00:05:25;;;;;;;21.33;8.07;;;;;;;;;;6326878;22;20215;-84
2021/07/19 00:07:53;;;;;;;21.15;7.55;;;;;;;;;;6355701;22;20102;-85
2021/07/19 00:10:20;;;;;;;21.60;8.45;;;;;;;;;;6352715;22;20023;-85
2021/07/19 00:12:47;;;;;;;17.77;6.88;;;;;;;;;;6324158;22;20041;-85
2021/07/19 00:15:15;;;;;;;16.95;7.78;;;;;;;;;;6321477;22;20039;-84
2021/07/19 00:17:44;;;;;;;16.02;7.05;;;;;;;;;;6325433;22;20102;-85
2021/07/19 00:20:10;;;;;;;16.85;6.55;;;;;;;;;;6352239;22;20070;-85
2021/07/19 00:22:37;;;;;;;22.15;8.10;;;;;;;;;;6324873;22;20088;-84
2021/07/19 00:25:05;;;;;;;20.13;7.45;;;;;;;;;;6321012;22;20023;-85
2021/07/19 00:27:32;;;;;;;14.48;5.68;;;;;;;;;;6309376;22;20109;-85
2021/07/19 00:29:59;;;;;;;19.77;6.50;;;;;;;;;;6312638;22;20122;-85
2021/07/19 00:32:26;;;;;;;15.98;6.43;;;;;;;;;;6314098;22;20029;-84
2021/07/19 00:34:52;;;;;;;18.30;6.38;;;;;;;;;;6312370;22;20026;-85
2021/07/19 00:37:19;;;;;;;20.50;6.40;;;;;;;;;;6311041;22;20401;-85
2021/07/19 00:39:46;;;;;;;18.90;6.43;;;;;;;;;;6312689;22;20027;-85
2021/07/19 00:42:13;;;;;;;25.85;6.63;;;;;;;;;;6311267;22;20023;-86
2021/07/19 00:44:39;;;;;;;17.35;5.93;;;;;;;;;;6315150;22;20102;-85
2021/07/19 00:47:06;;;;;;;16.17;6.32;;;;;;;;;;6312925;22;20106;-86
2021/07/19 00:49:34;;;;;;;13.30;6.03;;;;;;;;;;6312452;22;20027;-86
2021/07/19 00:52:00;;;;;;;19.33;6.03;;;;;;;;;;6313261;22;20023;-86
2021/07/19 00:54:28;;;;;;;17.92;5.70;;;;;;;;;;6311738;22;20308;-86
2021/07/19 00:56:55;;;;;;;20.77;5.20;;;;;;;;;;6311369;22;20022;-86
2021/07/19 00:59:22;;;;;;;14.15;6.03;;;;;;;;;;6312179;22;20452;-85
2021/07/19 01:01:50;;;;;;;14.75;5.93;;;;;;;;;;6312978;22;20023;-86
2021/07/19 01:04:18;;;;;;;20.98;6.55;;;;;;;;;;6331746;22;20015;-86
2021/07/19 01:06:47;;;;;;;17.17;5.72;;;;;;;;;;6331699;22;20007;-86
2021/07/19 01:09:13;;;;;;;17.83;6.45;;;;;;;;;;6331690;22;20022;-86
2021/07/19 01:11:40;;;;;;;20.98;6.65;;;;;;;;;;6330356;22;20114;-86
2021/07/19 01:14:07;;;;;;;20.13;6.88;;;;;;;;;;6317540;22;20188;-86
2021/07/19 01:16:34;;;;;;;25.23;6.75;;;;;;;;;;6314835;22;20023;-86
2021/07/19 01:19:04;;;;;;;20.05;6.75;;;;;;;;;;6314376;22;20019;-86
2021/07/19 01:21:31;;;;;;;23.83;6.80;;;;;;;;;;6313048;22;20286;-85
2021/07/19 01:24:10;;;;;;;19.85;6.80;;;;;;;;;;6314345;22;20027;-85
2021/07/19 01:26:36;;;;;;;25.08;6.57;;;;;;;;;;6328669;22;20027;-87
2021/07/19 01:29:06;;;;;;;19.00;6.53;;;;;;;;;;6334692;22;20027;-86
2021/07/19 01:31:38;;;;;;;23.08;7.07;;;;;;;;;;6317777;22;20101;-85
2021/07/19 01:34:06;;;;;;;16.08;6.60;;;;;;;;;;6345534;22;20310;-86
2021/07/19 01:36:34;;;;;;;21.65;6.97;;;;;;;;;;6318518;22;20081;-86
2021/07/19 01:39:05;;;;;;;23.17;7.05;;;;;;;;;;6345127;22;20254;-86
2021/07/19 01:41:33;;;;;;;24.10;6.97;;;;;;;;;;6344686;22;20023;-86
2021/07/19 01:44:01;;;;;;;20.30;6.57;;;;;;;;;;6345364;22;20072;-86
2021/07/19 01:46:28;;;;;;;17.38;7.05;;;;;;;;;;6317714;22;20026;-86
2021/07/19 01:48:55;;;;;;;16.20;6.10;;;;;;;;;;6317739;22;20019;-86
2021/07/19 01:51:23;;;;;;;26.38;7.53;;;;;;;;;;6345280;22;20072;-86
2021/07/19 01:53:50;;;;;;;20.67;6.95;;;;;;;;;;6344386;22;20163;-86
2021/07/19 01:56:18;;;;;;;21.45;6.07;;;;;;;;;;6317126;22;20026;-86
2021/07/19 01:58:46;;;;;;;17.80;6.55;;;;;;;;;;6346810;22;20137;-86
2021/07/19 02:01:13;;;;;;;21.02;6.57;;;;;;;;;;6322524;22;20040;-85
2021/07/19 02:03:39;;;;;;;20.00;6.22;;;;;;;;;;6326165;22;20030;-85
2021/07/19 02:06:07;;;;;;;20.92;6.78;;;;;;;;;;6321799;22;20023;-85
2021/07/19 02:08:35;;;;;;;21.10;6.90;;;;;;;;;;6320345;22;20360;-85
2021/07/19 02:11:03;;;;;;;24.45;7.10;;;;;;;;;;6319725;22;20014;-85
2021/07/19 02:13:32;;;;;;;26.35;7.10;;;;;;;;;;6318845;22;20030;-85
2021/07/19 02:15:59;;;;;;;21.90;6.90;;;;;;;;;;6317200;22;20074;-85
2021/07/19 02:18:26;;;;;;;19.15;6.50;;;;;;;;;;6319217;22;20105;-85
2021/07/19 02:20:54;;;;;;;16.77;6.78;;;;;;;;;;6346828;22;20037;-85
2021/07/19 02:23:21;;;;;;;19.73;6.63;;;;;;;;;;6330259;22;20037;-85
2021/07/19 02:25:53;;;;;;;16.60;6.50;;;;;;;;;;6333170;22;20007;-85
2021/07/19 02:28:20;;;;;;;17.33;7.05;;;;;;;;;;6354023;22;20101;-85
2021/07/19 02:30:46;;;;;;;18.35;6.75;;;;;;;;;;6321377;22;20049;-85
2021/07/19 02:33:19;;;;;;;23.55;6.72;;;;;;;;;;6346627;22;20031;-85
2021/07/19 02:35:47;;;;;;;18.83;6.82;;;;;;;;;;6319722;22;20033;-85
2021/07/19 02:38:15;;;;;;;15.82;6.70;;;;;;;;;;6325139;22;20023;-86
2021/07/19 02:40:43;;;;;;;23.58;6.93;;;;;;;;;;6334868;22;20075;-86
2021/07/19 02:43:10;;;;;;;21.42;7.32;;;;;;;;;;6334747;22;20023;-86
2021/07/19 02:45:38;;;;;;;17.58;6.80;;;;;;;;;;6361387;22;20003;-86
2021/07/19 02:48:06;;;;;;;17.33;6.43;;;;;;;;;;6358886;22;20026;-86
2021/07/19 02:50:33;;;;;;;22.88;6.50;;;;;;;;;;6356388;22;20262;-86
2021/07/19 02:53:10;;;;;;;18.63;6.50;;;;;;;;;;6356650;22;20034;-84
2021/07/19 02:55:38;;;;;;;17.35;7.20;;;;;;;;;;6328283;22;20037;-85
2021/07/19 02:58:05;;;;;;;25.20;7.20;;;;;;;;;;6354131;22;20057;-84
2021/07/19 03:00:33;;;;;;;23.45;6.95;;;;;;;;;;6356547;22;20027;-84
2021/07/19 03:03:07;;;;;;;24.38;7.97;;;;;;;;;;6356511;22;20030;-85
2021/07/19 03:05:38;;;;;;;21.27;7.30;;;;;;;;;;6329209;22;20071;-85
2021/07/19 03:08:06;;;;;;;21.40;7.60;;;;;;;;;;6327973;22;20037;-85
2021/07/19 03:10:33;;;;;;;25.13;8.00;;;;;;;;;;6354308;22;20192;-85
2021/07/19 03:13:03;;;;;;;25.33;8.55;;;;;;;;;;6328498;22;20045;-84
2021/07/19 03:15:31;;;;;;;18.77;8.15;;;;;;;;;;6356001;22;20011;-84
2021/07/19 03:18:05;;;;;;;20.45;7.85;;;;;;;;;;6331459;22;20035;-83
2021/07/19 03:20:35;;;;;;;22.33;8.43;;;;;;;;;;6329978;22;20074;-84
2021/07/19 03:23:22;;;;;;;19.90;7.55;;;;;;;;;;6330931;22;20026;-84
2021/07/19 03:25:49;;;;;;;30.80;7.93;;;;;;;;;;6330378;22;20022;-85
2021/07/19 03:28:17;;;;;;;17.48;7.60;;;;;;;;;;6325654;22;20071;-86
2021/07/19 03:30:43;;;;;;;21.83;7.60;;;;;;;;;;6327224;22;20213;-85
2021/07/19 03:33:14;;;;;;;17.88;7.22;;;;;;;;;;6327239;22;20381;-83
2021/07/19 03:35:41;;;;;;;25.95;7.38;;;;;;;;;;6323781;22;20116;-85
2021/07/19 03:38:08;;;;;;;19.27;7.25;;;;;;;;;;6325216;22;20028;-84
2021/07/19 03:40:35;;;;;;;16.92;6.45;;;;;;;;;;6326675;22;20274;-85
2021/07/19 03:43:17;;;;;;;17.38;6.90;;;;;;;;;;6326593;22;20023;-86
2021/07/19 03:45:46;;;;;;;19.27;7.20;;;;;;;;;;6325307;22;20029;-85
2021/07/19 03:48:16;;;;;;;24.48;7.10;;;;;;;;;;6325687;22;20225;-84
2021/07/19 03:51:07;;;;;;;18.23;6.93;;;;;;;;;;6328090;22;20046;-85
2021/07/19 03:53:36;;;;;;;14.82;6.47;;;;;;;;;;6327761;22;20133;-86
2021/07/19 03:56:02;;;;;;;18.23;6.50;;;;;;;;;;6326233;22;20061;-84
2021/07/19 03:58:30;;;;;;;21.13;6.97;;;;;;;;;;6325303;22;20033;-85
2021/07/19 04:00:57;;;;;;;21.05;6.95;;;;;;;;;;6324735;22;20290;-85
2021/07/19 04:03:27;;;;;;;18.50;6.25;;;;;;;;;;6325941;22;20023;-86
2021/07/19 04:06:02;;;;;;;20.98;6.57;;;;;;;;;;6323996;22;20046;-86
2021/07/19 04:08:30;;;;;;;17.70;7.28;;;;;;;;;;6324192;22;20022;-86
2021/07/19 04:10:57;;;;;;;17.17;6.13;;;;;;;;;;6324288;22;20023;-86
2021/07/19 04:13:29;;;;;;;16.88;6.43;;;;;;;;;;6325984;22;20023;-86
2021/07/19 04:15:58;;;;;;;12.57;5.47;;;;;;;;;;6325194;22;20034;-86
2021/07/19 04:18:25;;;;;;;20.27;6.95;;;;;;;;;;6327589;22;20027;-86
2021/07/19 04:20:53;;;;;;;20.48;6.65;;;;;;;;;;6327055;22;20041;-86
2021/07/19 04:23:20;;;;;;;14.95;6.25;;;;;;;;;;6326352;22;20031;-84
2021/07/19 04:25:53;;;;;;;14.00;6.00;;;;;;;;;;6325721;22;20093;-85
2021/07/19 04:28:24;;;;;;;24.30;6.90;;;;;;;;;;6355389;22;20052;-85
2021/07/19 04:30:51;;;;;;;16.63;7.05;;;;;;;;;;6357883;22;20011;-85
2021/07/19 04:33:18;;;;;;;17.60;5.85;;;;;;;;;;6331240;22;20023;-85
2021/07/19 04:35:51;;;;;;;15.77;5.85;;;;;;;;;;6357169;22;20074;-86
2021/07/19 04:38:21;;;;;;;13.88;6.35;;;;;;;;;;6329909;22;20037;-85
2021/07/19 04:40:50;;;;;;;18.63;6.45;;;;;;;;;;6330030;22;20049;-85
2021/07/19 04:43:17;;;;;;;14.00;6.43;;;;;;;;;;6330650;22;20070;-85
2021/07/19 04:45:53;;;;;;;18.08;6.18;;;;;;;;;;6357479;22;20027;-86
2021/07/19 04:48:21;;;;;;;21.67;6.13;;;;;;;;;;6357784;22;20380;-86
2021/07/19 04:50:48;;;;;;;16.33;5.70;;;;;;;;;;6328867;22;20124;-85
2021/07/19 04:53:15;;;;;;;17.60;5.97;;;;;;;;;;6328354;22;20050;-85
2021/07/19 04:55:58;;;;;;;20.95;6.00;;;;;;;;;;6329347;22;20030;-85
2021/07/19 04:58:25;;;;;;;16.15;5.68;;;;;;;;;;6355710;22;20411;-85
2021/07/19 05:01:00;;;;;;;16.95;5.50;;;;;;;;;;6327795;22;20026;-85
2021/07/19 05:03:29;;;;;;;16.98;5.55;;;;;;;;;;6328019;22;20057;-85
2021/07/19 05:05:56;;;;;;;12.35;5.28;;;;;;;;;;6328454;22;20061;-85
2021/07/19 05:08:25;;;;;;;14.23;5.28;;;;;;;;;;6318575;22;20035;-85
2021/07/19 05:10:52;;;;;;;16.10;6.55;;;;;;;;;;6310679;22;20026;-85
2021/07/19 05:13:20;;;;;;;19.63;5.10;;;;;;;;;;6312795;22;20083;-85
2021/07/19 05:15:48;;;;;;;16.45;5.20;;;;;;;;;;6311967;22;20348;-84
2021/07/19 05:18:20;;;;;;;10.55;5.18;;;;;;;;;;6313328;22;20023;-85
2021/07/19 05:20:49;;;;;;;16.85;5.32;;;;;;;;;;6314538;22;20210;-85
2021/07/19 05:23:20;;;;;;;19.23;5.18;;;;;;;;;;6313059;22;20319;-84
2021/07/19 05:25:48;;;;;;;18.83;5.32;;;;;;;;;;6317736;22;20121;-85
2021/07/19 05:28:15;;;;;;;17.63;5.70;;;;;;;;;;6312784;22;20023;-85
2021/07/19 05:30:49;;;;;;;16.88;4.90;;;;;;;;;;6314162;22;20018;-85
2021/07/19 05:33:17;;;;;;;15.65;4.93;;;;;;;;;;6310929;22;20044;-86
2021/07/19 05:35:45;;;;;;;12.93;4.47;;;;;;;;;;6309746;22;20046;-87
2021/07/19 05:38:15;;;;;;;11.65;4.45;;;;;;;;;;6311543;22;20022;-87
2021/07/19 05:40:45;;;;;;;14.27;4.78;;;;;;;;;;6313004;22;20267;-86
2021/07/19 05:43:13;;;;;;;13.98;4.32;;;;;;;;;;6312848;22;20285;-86
2021/07/19 05:45:46;;;;;;;15.43;4.30;;;;;;;;;;6313098;22;20023;-87
2021/07/19 05:48:19;;;;;;;18.60;4.32;;;;;;;;;;6314322;22;20362;-87
2021/07/19 05:50:46;;;;;;;10.05;3.97;;;;;;;;;;6307996;22;20033;-86
2021/07/19 05:53:13;;;;;;;14.70;4.97;;;;;;;;;;6326198;22;20067;-86
2021/07/19 05:55:40;;;;;;;14.45;4.13;;;;;;;;;;6352633;22;20045;-87
2021/07/19 05:58:08;;;;;;;14.02;4.10;;;;;;;;;;6341460;22;20023;-87
2021/07/19 06:00:44;;;;;;;11.02;3.92;;;;;;;;;;6311850;22;20125;-86
2021/07/19 06:03:11;;;;;;;;;;;;;;;;;;6310479;22;20019;-86
2021/07/19 06:05:38;;;;;;;12.25;3.50;;;;;;;;;;6313286;22;19985;-86
2021/07/19 06:08:09;;;;;;;11.77;3.75;;;;;;;;;;6309460;22;20052;-85
2021/07/19 06:10:37;;;;;;;8.88;3.60;;;;;;;;;;6309296;22;20212;-86
2021/07/19 06:13:04;;;;;;;13.98;3.72;;;;;;;;;;6309219;22;20026;-85
2021/07/19 06:15:32;;;;;;;17.60;3.97;;;;;;;;;;6309013;22;20068;-86
2021/07/19 06:18:03;;;;;;;17.90;3.90;;;;;;;;;;6313491;22;20374;-86
2021/07/19 06:20:31;;;;;;;12.07;3.67;;;;;;;;;;6314960;22;20022;-85
2021/07/19 06:23:11;;;;;;;10.65;3.70;;;;;;;;;;6319918;22;20066;-85
2021/07/19 06:25:42;;;;;;;13.45;3.97;;;;;;;;;;6336070;22;20075;-85
2021/07/19 06:28:10;;;;;;;10.93;3.63;;;;;;;;;;6308790;22;20031;-86
2021/07/19 06:30:38;;;;;;;16.58;3.50;;;;;;;;;;6312347;22;20102;-85
2021/07/19 06:33:05;;;;;;;12.90;3.60;;;;;;;;;;6338239;22;20161;-86
2021/07/19 06:35:36;;;;;;;10.77;3.35;;;;;;;;;;6308771;22;20102;-85
2021/07/19 06:38:03;;;;;;;12.18;3.60;;;;;;;;;;6312247;22;20026;-86
2021/07/19 06:40:36;;;;;;;10.30;3.30;;;;;;;;;;6314766;22;20029;-85
2021/07/19 06:43:03;;;;;;;7.57;3.38;;;;;;;;;;6312269;22;20343;-86
2021/07/19 06:45:30;;;;;;;12.77;3.83;;;;;;;;;;6310622;22;20043;-86
2021/07/19 06:47:59;;;;;;;10.43;3.47;;;;;;;;;;6310182;22;20159;-85
2021/07/19 06:50:30;;;;;;;10.45;3.65;;;;;;;;;;6314942;22;20533;-87
2021/07/19 06:52:59;;;;;;;11.52;3.58;;;;;;;;;;6326030;22;20015;-85
2021/07/19 06:55:29;;;;;;;8.38;3.72;;;;;;;;;;6331525;22;20010;-86
2021/07/19 06:57:55;;;;;;;16.85;4.15;;;;;;;;;;6358212;22;20073;-86
2021/07/19 07:00:24;;;;;;;12.95;4.13;;;;;;;;;;6331095;22;20027;-85
2021/07/19 07:02:51;;;;;;;8.93;3.17;;;;;;;;;;6324680;22;20037;-87
2021/07/19 07:05:29;;;;;;;10.88;3.92;;;;;;;;;;6316871;22;20225;-86
2021/07/19 07:07:56;;;;;;;10.30;3.72;;;;;;;;;;6313564;22;20111;-86
2021/07/19 07:10:33;;;;;;;10.23;4.20;;;;;;;;;;6311263;22;20033;-86
2021/07/19 07:13:08;;;;;;;11.00;4.40;;;;;;;;;;6314912;22;20019;-87
2021/07/19 07:15:48;;;;;;;9.13;3.92;;;;;;;;;;6296540;22;20052;-86
2021/07/19 07:18:16;;;;;;;12.38;4.55;;;;;;;;;;6328282;22;20019;-85
2021/07/19 07:20:44;;;;;;;6.75;3.38;;;;;;;;;;6355838;22;20194;-86
2021/07/19 07:23:21;;;;;;;11.30;4.32;;;;;;;;;;6324721;22;20026;-86
2021/07/19 07:25:48;;;;;;;11.23;5.00;;;;;;;;;;6313101;22;20045;-87
2021/07/19 07:28:15;;;;;;;14.90;5.30;;;;;;;;;;6339936;22;20059;-86
2021/07/19 07:30:42;;;;;;;12.45;5.20;;;;;;;;;;6311087;22;20317;-86
2021/07/19 07:33:15;;;;;;;11.32;4.93;;;;;;;;;;6312240;22;20022;-86
2021/07/19 07:35:45;;;;;;;13.82;5.07;;;;;;;;;;6315130;22;20029;-86
2021/07/19 07:38:14;;;;;;;11.38;5.00;;;;;;;;;;6336088;22;20034;-86
2021/07/19 07:40:52;;;;;;;10.25;4.45;;;;;;;;;;6309334;22;20034;-87
2021/07/19 07:43:21;;;;;;;9.48;4.60;;;;;;;;;;6311545;22;20099;-86
2021/07/19 07:45:49;;;;;;;9.27;4.82;;;;;;;;;;6335502;22;20076;-85
2021/07/19 07:48:21;;;;;;;12.05;5.10;;;;;;;;;;6313541;22;20022;-87
2021/07/19 07:50:49;;;;;;;12.07;4.63;;;;;;;;;;6337760;22;20022;-86
2021/07/19 07:53:19;;;;;;;10.35;4.70;;;;;;;;;;6312089;22;20070;-85
2021/07/19 07:55:49;;;;;;;13.88;5.35;;;;;;;;;;6309274;22;20083;-86
2021/07/19 07:58:15;;;;;;;15.30;4.93;;;;;;;;;;6308807;22;20026;-85
2021/07/19 08:00:46;;;;;;;10.05;5.03;;;;;;;;;;6312814;22;20026;-85
2021/07/19 08:03:17;;;;;;;10.05;5.10;;;;;;;;;;6339184;22;20023;-86
2021/07/19 08:05:45;;;;;;;11.05;5.15;;;;;;;;;;6308872;22;20080;-87
2021/07/19 08:08:12;;;;;;;12.68;5.45;;;;;;;;;;6312689;22;20156;-86
2021/07/19 08:10:41;;;;;;;10.07;4.70;;;;;;;;;;6315067;22;20023;-85
2021/07/19 08:13:09;;;;;;;16.63;5.53;;;;;;;;;;6313705;22;20030;-87
2021/07/19 08:15:49;;;;;;;10.70;4.45;;;;;;;;;;6318533;22;20027;-86
2021/07/19 08:18:17;;;;;;;11.25;4.65;;;;;;;;;;6314114;22;20076;-85
2021/07/19 08:20:45;;;;;;;11.77;5.38;;;;;;;;;;6314475;22;20023;-86
2021/07/19 08:23:17;;;;;;;12.75;4.97;;;;;;;;;;6318196;22;20074;-88
2021/07/19 08:25:48;;;;;;;9.52;4.63;;;;;;;;;;6321359;22;20211;-87
2021/07/19 08:28:31;;;;;;;10.13;4.60;;;;;;;;;;6324830;22;20034;-86
2021/07/19 08:30:59;;;;;;;11.75;4.65;;;;;;;;;;6347073;22;20101;-86
2021/07/19 08:33:44;;;;;;;11.98;5.20;;;;;;;;;;6346817;22;20023;-86
2021/07/19 08:36:24;;;;;;;8.73;4.35;;;;;;;;;;6352561;22;20031;-87
2021/07/19 08:38:52;;;;;;;12.57;4.63;;;;;;;;;;6326983;22;20007;-87
2021/07/19 08:41:19;;;;;;;10.00;4.35;;;;;;;;;;6324888;22;20050;-86
2021/07/19 08:43:46;;;;;;;12.02;4.88;;;;;;;;;;6322407;22;20172;-85
2021/07/19 08:46:14;;;;;;;7.57;4.32;;;;;;;;;;6315060;22;20076;-88
2021/07/19 08:48:50;;;;;;;12.00;4.72;;;;;;;;;;6308185;22;20135;-87
2021/07/19 08:51:17;;;;;;;6.80;4.32;;;;;;;;;;6307614;22;20336;-85
2021/07/19 08:53:45;;;;;;;10.98;3.97;;;;;;;;;;6309276;22;20138;-85
2021/07/19 08:56:12;;;;;;;7.95;4.32;;;;;;;;;;6313019;22;20283;-86
2021/07/19 08:58:42;;;;;;;8.82;4.40;;;;;;;;;;6310399;22;20030;-86
2021/07/19 09:01:13;;;;;;;7.38;4.07;;;;;;;;;;6337337;22;20269;-84
2021/07/19 09:03:45;;;;;;;6.70;4.25;;;;;;;;;;6336682;22;20030;-84
2021/07/19 09:06:16;;;;;;;11.25;4.25;;;;;;;;;;6335557;22;20081;-85
2021/07/19 09:08:46;;;;;;;7.78;4.13;;;;;;;;;;6311879;22;20304;-86
2021/07/19 09:11:13;;;;;;;9.68;4.60;;;;;;;;;;6306536;22;20022;-85
2021/07/19 09:14:01;;;;;;;8.27;4.60;;;;;;;;;;6310881;22;20058;-85
2021/07/19 09:16:42;;;;;;;9.00;4.57;;;;;;;;;;6317890;22;20282;-85
2021/07/19 09:19:12;;;;;;;6.93;4.07;;;;;;;;;;6328453;22;20264;-86
2021/07/19 09:21:43;;;;;;;9.25;4.35;;;;;;;;;;6324219;22;20041;-84
2021/07/19 09:24:16;;;;;;;7.25;4.28;;;;;;;;;;6312129;22;20018;-85
2021/07/19 09:26:46;;;;;;;10.95;4.28;;;;;;;;;;6336549;22;20049;-85
2021/07/19 09:29:18;;;;;;;9.38;5.10;;;;;;;;;;6315123;22;20027;-85
2021/07/19 09:31:51;;;;;;;12.10;5.30;;;;;;;;;;6310447;22;20049;-85
2021/07/19 09:34:25;;;;;;;10.38;5.20;;;;;;;;;;6308605;22;20403;-86
2021/07/19 09:36:57;;;;;;;12.18;4.72;;;;;;;;;;6309327;22;20392;-84
2021/07/19 09:39:28;;;;;;;9.27;4.65;;;;;;;;;;6308671;22;20108;-85
2021/07/19 09:42:11;;;;;;;12.57;4.90;;;;;;;;;;6336902;22;20027;-85
2021/07/19 09:44:51;;;;;;;9.25;4.90;;;;;;;;;;6309051;22;20027;-86
2021/07/19 09:47:40;;;;;;;12.27;4.45;;;;;;;;;;6311726;22;20535;-84
2021/07/19 09:50:13;;;;;;;11.70;4.53;;;;;;;;;;6307893;22;20161;-84
2021/07/19 09:52:45;;;;;;;10.35;4.85;;;;;;;;;;6306314;22;20082;-86
2021/07/19 09:55:14;;;;;;;10.65;4.47;;;;;;;;;;6307578;22;20019;-84
2021/07/19 09:57:45;;;;;;;8.00;4.68;;;;;;;;;;6304618;22;20026;-84
2021/07/19 10:00:12;;;;;;;11.50;5.10;;;;;;;;;;6305269;22;20490;-85
2021/07/19 10:02:43;;;;;;;15.13;5.63;;;;;;;;;;6335922;22;20319;-85
2021/07/19 10:05:10;;;;;;;11.13;4.78;;;;;;;;;;6338985;22;20112;-84
2021/07/19 10:07:46;;;;;;;23.58;5.35;;;;;;;;;;6336911;22;20106;-85
2021/07/19 10:10:45;;;;;;;11.23;4.20;;;;;;;;;;6311726;22;20030;-85
2021/07/19 10:13:30;;;;;;;11.82;3.78;;;;;;;;;;6312281;22;20214;-84
2021/07/19 10:15:57;;;;;;;20.85;6.78;;;;;;;;;;6308831;22;20031;-84
2021/07/19 10:18:29;;;;;;;8.93;4.65;;;;;;;;;;6306466;22;20062;-85
2021/07/19 10:20:57;;;;;;;8.43;4.38;;;;;;;;;;6310615;22;20023;-86
2021/07/19 10:23:25;;;;;;;17.42;5.50;;;;;;;;;;6328519;22;20037;-85
2021/07/19 10:25:52;;;;;;;10.77;4.45;;;;;;;;;;6331566;22;20023;-85
2021/07/19 10:28:19;;;;;;;10.13;4.70;;;;;;;;;;6291201;22;20295;-85
2021/07/19 10:30:56;;;;;;;8.45;4.75;;;;;;;;;;6333537;22;20106;-85
2021/07/19 10:33:30;;;;;;;10.23;4.30;;;;;;;;;;6331184;22;20031;-85
2021/07/19 10:35:59;;;;;;;10.05;4.45;;;;;;;;;;6303918;22;20023;-84
2021/07/19 10:38:29;;;;;;;11.52;4.50;;;;;;;;;;6333508;22;20220;-84
2021/07/19 10:40:57;;;;;;;19.40;5.50;;;;;;;;;;6303875;22;20137;-84
2021/07/19 10:43:26;;;;;;;10.25;4.53;;;;;;;;;;6299265;22;20023;-86
2021/07/19 10:46:09;;;;;;;10.82;5.47;;;;;;;;;;6303033;22;20030;-84
2021/07/19 10:48:36;;;;;;;14.07;6.28;;;;;;;;;;6309766;22;20034;-85
2021/07/19 10:51:17;;;;;;;11.35;5.00;;;;;;;;;;6306792;22;20021;-86
2021/07/19 10:53:44;;;;;;;8.60;4.90;;;;;;;;;;6305754;22;20036;-85
2021/07/19 10:56:13;;;;;;;13.30;5.20;;;;;;;;;;6314086;22;20030;-85
2021/07/19 10:58:48;;;;;;;8.65;4.30;;;;;;;;;;6308253;22;20033;-86
2021/07/19 11:01:18;;;;;;;11.88;4.82;;;;;;;;;;6301851;22;20087;-85
2021/07/19 11:03:52;;;;;;;10.13;5.25;;;;;;;;;;6306063;22;20035;-85
2021/07/19 11:06:34;;;;;;;8.95;4.90;;;;;;;;;;6303276;22;20042;-86
2021/07/19 11:09:05;;;;;;;10.70;5.05;;;;;;;;;;6329561;22;20206;-84
2021/07/19 11:11:34;;;;;;;9.63;5.22;;;;;;;;;;6303100;22;20023;-85
2021/07/19 11:14:06;;;;;;;10.25;4.80;;;;;;;;;;6328895;22;20029;-85
2021/07/19 11:16:50;;;;;;;12.43;5.23;;;;;;;;;;6305917;22;20038;-85
2021/07/19 11:19:29;;;;;;;8.15;5.22;;;;;;;;;;6305978;22;20437;-85
2021/07/19 11:22:11;;;;;;;7.68;4.63;;;;;;;;;;6308736;22;20023;-85
2021/07/19 11:24:49;;;;;;;11.77;5.22;;;;;;;;;;6308090;22;20026;-85
2021/07/19 11:27:44;;;;;;;10.73;5.30;;;;;;;;;;6305389;22;20030;-85
2021/07/19 11:30:22;;;;;;;10.30;4.93;;;;;;;;;;6275999;22;20039;-85
2021/07/19 11:32:50;;;;;;;12.30;5.70;;;;;;;;;;6296093;22;20030;-85
2021/07/19 11:35:24;;;;;;;9.95;5.00;;;;;;;;;;6267056;22;20211;-85
2021/07/19 11:37:54;;;;;;;10.10;5.28;;;;;;;;;;6274422;22;20023;-85
2021/07/19 11:40:41;;;;;;;12.45;5.45;;;;;;;;;;6299474;22;20270;-85
2021/07/19 11:43:12;;;;;;;8.40;5.03;;;;;;;;;;6274667;22;20139;-85
2021/07/19 11:45:45;;;;;;;11.93;5.18;;;;;;;;;;6275255;22;20023;-84
2021/07/19 11:48:12;;;;;;;9.07;4.75;;;;;;;;;;6276379;22;20397;-85
2021/07/19 11:50:39;;;;;;;7.75;4.97;;;;;;;;;;6277307;22;20050;-85
2021/07/19 11:53:09;;;;;;;11.55;4.35;;;;;;;;;;6277080;22;20027;-85
2021/07/19 11:55:38;;;;;;;10.95;4.97;;;;;;;;;;6276046;22;20076;-86
2021/07/19 11:58:06;;;;;;;10.88;4.57;;;;;;;;;;6274860;22;20124;-83
2021/07/19 12:00:37;;;;;;;9.38;4.45;;;;;;;;;;6274973;22;20192;-86
2021/07/19 12:03:12;;;;;;;9.10;5.25;;;;;;;;;;6276349;22;20026;-85
2021/07/19 12:05:53;;;;;;;6.47;4.27;;;;;;;;;;6302431;22;20324;-85
2021/07/19 12:08:25;;;;;;;11.32;5.07;;;;;;;;;;6275984;22;20026;-84
2021/07/19 12:10:58;;;;;;;9.15;4.75;;;;;;;;;;6274450;22;20077;-84
2021/07/19 12:13:34;;;;;;;11.15;4.47;;;;;;;;;;6280117;22;20096;-84
2021/07/19 12:16:05;;;;;;;13.93;4.85;;;;;;;;;;6276830;22;20039;-84
2021/07/19 12:18:39;;;;;;;11.40;4.47;;;;;;;;;;6280211;22;20027;-84
2021/07/19 12:21:19;;;;;;;7.72;4.90;;;;;;;;;;6281012;22;20108;-84
2021/07/19 12:23:48;;;;;;;9.57;4.22;;;;;;;;;;6279533;22;20034;-85
2021/07/19 12:26:32;;;;;;;9.18;4.97;;;;;;;;;;6275311;22;20166;-85
2021/07/19 12:29:09;;;;;;;8.27;4.63;;;;;;;;;;6281529;22;20147;-85
2021/07/19 12:31:44;;;;;;;11.00;4.95;;;;;;;;;;6299248;22;20071;-84
2021/07/19 12:34:21;;;;;;;11.90;5.07;;;;;;;;;;6299378;22;20236;-85
2021/07/19 12:36:53;;;;;;;12.50;4.53;;;;;;;;;;6305723;22;20023;-85
2021/07/19 12:39:24;;;;;;;15.38;5.38;;;;;;;;;;6302579;22;20023;-84
2021/07/19 12:41:52;;;;;;;12.13;5.18;;;;;;;;;;6311882;22;20017;-84
2021/07/19 12:44:20;;;;;;;14.25;5.55;;;;;;;;;;6320630;22;20027;-85
2021/07/19 12:46:48;;;;;;;8.20;4.80;;;;;;;;;;6310378;22;20278;-86
2021/07/19 12:49:25;;;;;;;8.95;5.05;;;;;;;;;;6299399;22;20027;-86
2021/07/19 12:52:03;;;;;;;9.63;4.72;;;;;;;;;;6303007;22;20086;-85
2021/07/19 12:54:54;;;;;;;14.07;4.90;;;;;;;;;;6300808;22;20397;-84
2021/07/19 12:57:25;;;;;;;13.20;4.78;;;;;;;;;;6300958;22;20233;-85
2021/07/19 12:59:54;;;;;;;11.70;4.95;;;;;;;;;;6303974;22;20031;-85
2021/07/19 13:02:22;;;;;;;8.75;4.80;;;;;;;;;;6302249;22;20027;-86
2021/07/19 13:04:53;;;;;;;9.52;4.60;;;;;;;;;;6302808;22;20050;-86
2021/07/19 13:07:27;;;;;;;9.32;4.93;;;;;;;;;;6303965;22;20077;-87
2021/07/19 13:09:55;;;;;;;9.73;5.22;;;;;;;;;;6305618;22;20101;-84
2021/07/19 13:12:26;;;;;;;8.52;5.07;;;;;;;;;;6303246;22;20252;-86
2021/07/19 13:15:03;;;;;;;9.05;4.50;;;;;;;;;;6301257;22;20027;-86
2021/07/19 13:17:31;;;;;;;11.10;4.78;;;;;;;;;;6303501;22;20034;-85
2021/07/19 13:20:03;;;;;;;11.45;4.68;;;;;;;;;;6301342;22;20054;-84
2021/07/19 13:22:35;;;;;;;12.48;4.63;;;;;;;;;;6301752;22;20138;-85
2021/07/19 13:25:19;;;;;;;9.38;4.38;;;;;;;;;;6311114;22;20011;-85
2021/07/19 13:27:46;;;;;;;10.52;4.55;;;;;;;;;;6319253;22;20212;-84
2021/07/19 13:30:16;;;;;;;10.27;4.45;;;;;;;;;;6339378;22;20074;-84
2021/07/19 13:32:56;;;;;;;12.35;4.82;;;;;;;;;;6335905;22;20038;-85
2021/07/19 13:35:26;;;;;;;10.18;5.18;;;;;;;;;;6337048;22;20079;-85
2021/07/19 13:37:54;;;;;;;8.77;4.60;;;;;;;;;;6346202;22;20095;-85
2021/07/19 13:40:29;;;;;;;8.25;4.25;;;;;;;;;;6324221;22;20560;-84
2021/07/19 13:43:00;;;;;;;14.30;4.40;;;;;;;;;;6321664;22;20019;-85
2021/07/19 13:45:30;;;;;;;8.70;4.10;;;;;;;;;;6344516;22;20018;-85
2021/07/19 13:48:01;;;;;;;7.03;4.47;;;;;;;;;;6317029;22;20076;-84
2021/07/19 13:50:30;;;;;;;9.07;4.35;;;;;;;;;;6312775;22;20037;-85
2021/07/19 13:52:59;;;;;;;12.32;4.03;;;;;;;;;;6312450;22;20023;-85
2021/07/19 13:55:27;;;;;;;12.15;4.80;;;;;;;;;;6309867;22;20033;-85
2021/07/19 13:57:53;;;;;;;11.30;3.85;;;;;;;;;;6331104;22;20461;-85
2021/07/19 14:00:24;;;;;;;14.98;4.75;;;;;;;;;;6309297;22;20073;-85
2021/07/19 14:02:51;;;;;;;10.57;5.03;;;;;;;;;;6319928;22;20011;-85
2021/07/19 14:05:18;;;;;;;7.72;4.05;;;;;;;;;;6321299;22;20212;-85
2021/07/19 14:07:52;;;;;;;5.65;3.83;;;;;;;;;;6316244;22;20160;-86
2021/07/19 14:10:18;;;;;;;8.65;4.57;;;;;;;;;;6335265;22;20023;-85
2021/07/19 14:12:45;;;;;;;6.10;4.88;;;;;;;;;;6305432;22;20071;-85
2021/07/19 14:15:12;;;;;;;9.45;4.22;;;;;;;;;;6303385;22;20022;-86
2021/07/19 14:17:39;;;;;;;8.15;4.22;;;;;;;;;;6305306;22;20096;-86
2021/07/19 14:20:06;;;;;;;11.35;4.40;;;;;;;;;;6312152;22;20172;-86
2021/07/19 14:22:35;;;;;;;8.63;4.38;;;;;;;;;;6322385;22;20053;-86
2021/07/19 14:25:07;;;;;;;9.73;4.35;;;;;;;;;;6322858;22;20128;-84
2021/07/19 14:27:38;;;;;;;12.13;4.50;;;;;;;;;;6321814;22;20070;-84
2021/07/19 14:30:08;;;;;;;9.88;4.60;;;;;;;;;;6312939;22;20114;-86
2021/07/19 14:32:44;;;;;;;7.93;5.00;;;;;;;;;;6310866;22;20162;-85
2021/07/19 14:35:15;;;;;;;9.82;4.57;;;;;;;;;;6307643;22;20288;-85
2021/07/19 14:37:43;;;;;;;11.23;5.00;;;;;;;;;;6309621;22;20030;-85
2021/07/19 14:40:11;;;;;;;7.82;4.72;;;;;;;;;;6308593;22;20026;-85
2021/07/19 14:42:42;;;;;;;10.35;4.47;;;;;;;;;;6308996;22;20070;-85
2021/07/19 14:45:14;;;;;;;9.13;4.35;;;;;;;;;;6332486;22;20126;-85
2021/07/19 14:47:41;;;;;;;11.43;4.85;;;;;;;;;;6331768;22;20084;-85
2021/07/19 14:50:12;;;;;;;10.27;5.13;;;;;;;;;;6303030;22;20193;-84
2021/07/19 14:52:48;;;;;;;7.18;4.25;;;;;;;;;;6332393;22;20372;-85